Grant Co International Airport
KMWH : now visible

Airfield :











YOU CAN JOIN US ON...

 
LOGIN :

Register | Disclaimer

   EN    FR    IT 

 









Legend :    VFR   Marginal VFR   IFR   Intensive IFR   Very Intensive IFR
Visi :
Ceiling :
>= 8 km
>= 3000ft
5 to 8 km
1000 to 3000 ft
1500m to 5 km
500 to 1000 ft
800 to 1500m
200 to 500 ft
< 800m
< 200 ft
Symbols :   Thunderstorms  Fog  Heavy snow  Heavy precipitations  Wind > 20 kt






- Airport Elevation : 1189 ft


KMWH - Grant Co International

CURRENT METAR :
  • 300752Z AUTO 26004KT 10SM BKN095 OVC110 16/09 A3008 RMK AO2 SLP185 T01610094 402060117

EXPIRED METARs :
  • 300652Z AUTO 00000KT 9SM OVC095 16/11 A3009 RMK AO2 SLP187 T01560111
  • 300552Z AUTO 13004KT 9SM OVC100 16/11 A3009 RMK AO2 SLP188 T01610106 10200 20161 51007

TAF KMWH
Valid from the 30 at 06:00 until the 01 at 06:00 UTC


300520Z 3006/0106 36004KT P6SM BKN120
FM301800 03005KT P6SM SCT200
FM010200 10005KT P6SM SKC
KZSE FIR / North America



MET'MAP, your aeronautical weather chart ! - Copyright ORBIFLY December 2007 - Disclaimer

ORBIFLY MET'MAP TEAM :

Programming & Development : Alexandra Zaïnal
Original concept : Baudouin d'Aumeries
Technical & hardware support : Manuel Goepfert
Assistance : Marc-Olivier Méhu




SOURCES & CREDITS :

   NOAA       Earth
Advisory